• Join FlightAware (Why Join?)
  • Login
  • US Flag 
08:01PM EDT


 

Airport Tracker/Info


-or-


 

Live Flight TrackerFlight Track Log ✈ CHQ5045 ✈ 24-Apr-2013 ✈ KAZO - KORD

Flight Track Log - Related Links

Times and Time Zones

All times are in EDT time to prevent confusion due to time zone crossing. See the CHQ5045 flight status page for this flight to view local times or setup timezone preferences in your user account.

Time Position Orientation Groundspeed Altitude Reporting Facility
EDT Latitude Longitude Course Direction KTS MPH feet Rate Location/Type
07:46PM 42.1946 -85.7710 259° West  Level FlightAware Approximate
07:46PM 42.2264 -85.7358 273° West 228 262 8,900  Level Chicago Center
07:47PM 42.1840 -85.8453 259° West  Level FlightAware Approximate
07:47PM 42.2094 -85.8219 255° West 251 289 10,000  Level Chicago Center
07:48PM 42.1697 -85.9184 255° West  Level FlightAware Approximate
07:48PM 42.1803 -85.9600 254° West 308 354 10,000  Level Chicago Center
07:49PM 42.1551 -85.9915 255° West  Level FlightAware Approximate
07:49PM 42.1458 -86.0586 245° Southwest 327 376 10,000  Level Chicago Center
07:50PM 42.1403 -86.0752 257° West  Level FlightAware Approximate
07:50PM 42.0994 -86.1908 245° Southwest 328 377 10,000  Level Chicago Center
07:51PM 42.1349 -86.1602 273° West  Level FlightAware Approximate
07:51PM 42.0611 -86.3022 245° Southwest 329 379 10,000  Level Chicago Center
07:52PM 42.0244 -86.4083 245° Southwest 321 369 10,000 -780 Level Chicago Center
07:53PM 41.9975 -86.4919 247° West 257 296 8,500 -1,020 Descending Chicago Center
07:54PM 41.9931 -86.5819 266° West 242 278 8,000 -300 Descending Chicago Center
07:55PM 41.9939 -86.6947 271° West 254 292 8,000  Level Chicago Center
07:56PM 41.9833 -86.7886 261° West 256 295 8,000  Level Chicago Center
07:57PM 41.9756 -86.8819 264° West 254 292 8,000  Level Chicago Center
07:58PM 41.9864 -86.9725 279° West 247 284 8,000  Level Chicago Center
07:59PM 41.9808 -87.0842 266° West 252 290 8,000 -300 Level Chicago Center
08:01PM 41.9833 -87.2097 272° West 243 280 7,300 -420 Descending Chicago Center
08:02PM 41.9825 -87.2986 269° West 239 275 7,000 -180 Descending Chicago Center
08:03PM 41.9833 -87.3894 271° West 243 280 7,000  Level Chicago Center
08:03PM 41.9833 -87.4333 270° West 239 275 7,000 -540 Level Chicago TRACON
08:04PM 41.9833 -87.5333 270° West 235 270 6,200 -1,080 Descending Chicago TRACON
08:05PM 41.9833 -87.6167 270° West 234 269 4,800 -1,440 Descending Chicago TRACON